Portada
METAR-TAF:

METAR-TAF

Aeroports :

El Palmar

Santa Ana, El Salvador

latitud: 13-59N, longitud: 089-34W, altitud: 725 m

Observació

L'informe es va fer fa 5 hores i 55 minuts, a les 23:50 UTC
Vent 2 kt del Est
Temperatura 27°C
Humitat 70%
Pressió 1012 hPa
Visibilitat 10 km o més
Escasses núvols a una alçada de 2700 ft
Escasses núvols a una alçada de 3700 ft, Cumulonimbus.
Núvols disperses a una alçada de 4300 ft
xàfecs en les proximitats

METAR: MSSA 292350Z 09002KT 9999 VCSH FEW027 FEW037CB SCT043 27/21 Q1011 A2988

Hora: 23:45 (05:45 UTC)


TAF: manca

Observacions i pronòstics meteorològics de més de 4000 aeroports (METAR i TAF).

Les estacions disponibles són els punts grocs i vermells al mapa.

Posi el ratolí al punt desitjat per veure el nom de l'estació.

Feu clic per veure les observacions i els pronòstics meteorològics.

Per canviar el mapa: feu clic els botons verds amb una creu de color negre per apropar; al botó verd amb un guió per allunyar la imatge; o en les fletxes verdes per a mapes adjacents.


METAR-TAF: